sensor_id;sensor_type;location;lat;lon;timestamp;temperature;humidity
27368;DHT22;14839;48.106;11.618;2023-03-16T05:01:14;-1.00;94.60
27368;DHT22;14839;48.106;11.618;2023-03-16T05:03:40;-1.00;94.60
27368;DHT22;14839;48.106;11.618;2023-03-16T05:06:07;-1.10;94.60
27368;DHT22;14839;48.106;11.618;2023-03-16T05:08:32;-1.10;94.60
27368;DHT22;14839;48.106;11.618;2023-03-16T05:10:58;-1.10;94.60
27368;DHT22;14839;48.106;11.618;2023-03-16T05:13:30;-1.00;94.60
27368;DHT22;14839;48.106;11.618;2023-03-16T05:15:56;-0.80;94.60
27368;DHT22;14839;48.106;11.618;2023-03-16T05:18:22;-0.70;94.60
27368;DHT22;14839;48.106;11.618;2023-03-16T05:20:51;-0.70;94.60
27368;DHT22;14839;48.106;11.618;2023-03-16T05:23:18;-0.60;94.60
27368;DHT22;14839;48.106;11.618;2023-03-16T05:25:45;-0.60;94.60
27368;DHT22;14839;48.106;11.618;2023-03-16T05:28:11;-0.60;94.60
27368;DHT22;14839;48.106;11.618;2023-03-16T05:30:37;-0.60;94.60
27368;DHT22;14839;48.106;11.618;2023-03-16T05:33:03;-0.50;94.60
27368;DHT22;14839;48.106;11.618;2023-03-16T05:35:28;-0.50;94.60
27368;DHT22;14839;48.106;11.618;2023-03-16T05:37:55;-0.50;94.60
27368;DHT22;14839;48.106;11.618;2023-03-16T05:40:20;-0.50;94.60
27368;DHT22;14839;48.106;11.618;2023-03-16T05:42:49;-0.40;94.60
27368;DHT22;14839;48.106;11.618;2023-03-16T05:45:15;-0.40;94.60
27368;DHT22;14839;48.106;11.618;2023-03-16T05:47:42;-0.30;94.60
27368;DHT22;14839;48.106;11.618;2023-03-16T05:50:09;-0.20;94.60
27368;DHT22;14839;48.106;11.618;2023-03-16T05:52:36;-0.10;94.60
27368;DHT22;14839;48.106;11.618;2023-03-16T05:55:04;0.10;94.60
27368;DHT22;14839;48.106;11.618;2023-03-16T05:57:30;0.10;94.60
27368;DHT22;14839;48.106;11.618;2023-03-16T05:59:56;0.20;94.60
27368;DHT22;14839;48.106;11.618;2023-03-16T06:02:21;0.20;94.60
27368;DHT22;14839;48.106;11.618;2023-03-16T06:04:47;0.30;94.60
27368;DHT22;14839;48.106;11.618;2023-03-16T06:07:13;0.30;94.60
27368;DHT22;14839;48.106;11.618;2023-03-16T06:09:38;0.40;94.60
27368;DHT22;14839;48.106;11.618;2023-03-16T06:12:04;0.60;94.60
27368;DHT22;14839;48.106;11.618;2023-03-16T06:14:29;0.80;94.60
27368;DHT22;14839;48.106;11.618;2023-03-16T06:16:55;0.90;94.60
27368;DHT22;14839;48.106;11.618;2023-03-16T06:19:21;0.90;94.60
27368;DHT22;14839;48.106;11.618;2023-03-16T06:21:46;0.80;94.60
27368;DHT22;14839;48.106;11.618;2023-03-16T06:24:12;1.00;94.60
27368;DHT22;14839;48.106;11.618;2023-03-16T06:26:38;1.10;94.60
27368;DHT22;14839;48.106;11.618;2023-03-16T06:29:04;1.10;94.60
27368;DHT22;14839;48.106;11.618;2023-03-16T06:31:30;1.20;94.60
27368;DHT22;14839;48.106;11.618;2023-03-16T06:33:57;1.30;94.60
27368;DHT22;14839;48.106;11.618;2023-03-16T06:36:23;1.40;94.60
27368;DHT22;14839;48.106;11.618;2023-03-16T06:38:49;1.50;94.60
27368;DHT22;14839;48.106;11.618;2023-03-16T06:41:14;1.60;94.60
27368;DHT22;14839;48.106;11.618;2023-03-16T06:43:40;1.60;94.60
27368;DHT22;14839;48.106;11.618;2023-03-16T06:46:06;1.60;94.60
27368;DHT22;14839;48.106;11.618;2023-03-16T06:48:32;1.70;94.60
27368;DHT22;14839;48.106;11.618;2023-03-16T06:50:57;1.70;94.60
27368;DHT22;14839;48.106;11.618;2023-03-16T06:53:23;1.70;94.60
27368;DHT22;14839;48.106;11.618;2023-03-16T06:55:49;1.80;94.60
27368;DHT22;14839;48.106;11.618;2023-03-16T06:58:15;1.80;94.60
27368;DHT22;14839;48.106;11.618;2023-03-16T07:00:41;1.90;94.60
27368;DHT22;14839;48.106;11.618;2023-03-16T07:03:10;2.00;94.60
27368;DHT22;14839;48.106;11.618;2023-03-16T07:05:35;2.00;94.60
27368;DHT22;14839;48.106;11.618;2023-03-16T07:08:01;2.00;94.60
27368;DHT22;14839;48.106;11.618;2023-03-16T07:10:29;1.70;94.60
27368;DHT22;14839;48.106;11.618;2023-03-16T07:12:54;1.90;94.60
27368;DHT22;14839;48.106;11.618;2023-03-16T07:15:20;2.00;94.60
27368;DHT22;14839;48.106;11.618;2023-03-16T07:17:46;1.90;94.60
27368;DHT22;14839;48.106;11.618;2023-03-16T07:20:11;1.90;94.60
27368;DHT22;14839;48.106;11.618;2023-03-16T07:22:39;1.90;94.60
27368;DHT22;14839;48.106;11.618;2023-03-16T07:25:06;2.00;94.60
27368;DHT22;14839;48.106;11.618;2023-03-16T07:27:32;2.00;94.60
27368;DHT22;14839;48.106;11.618;2023-03-16T07:29:58;2.00;94.60
27368;DHT22;14839;48.106;11.618;2023-03-16T07:32:24;1.70;94.60
27368;DHT22;14839;48.106;11.618;2023-03-16T07:34:50;1.80;94.60
27368;DHT22;14839;48.106;11.618;2023-03-16T07:37:16;1.90;94.60
27368;DHT22;14839;48.106;11.618;2023-03-16T07:39:41;1.70;94.60
27368;DHT22;14839;48.106;11.618;2023-03-16T07:42:08;1.80;94.60
27368;DHT22;14839;48.106;11.618;2023-03-16T07:44:33;1.80;94.60
27368;DHT22;14839;48.106;11.618;2023-03-16T07:46:59;2.00;94.60
27368;DHT22;14839;48.106;11.618;2023-03-16T07:49:26;2.10;94.60
27368;DHT22;14839;48.106;11.618;2023-03-16T07:51:52;2.20;94.60
27368;DHT22;14839;48.106;11.618;2023-03-16T07:54:17;2.40;94.60
27368;DHT22;14839;48.106;11.618;2023-03-16T07:56:43;2.40;94.60
27368;DHT22;14839;48.106;11.618;2023-03-16T07:59:09;2.40;94.60
27368;DHT22;14839;48.106;11.618;2023-03-16T08:01:35;2.40;94.60
27368;DHT22;14839;48.106;11.618;2023-03-16T08:04:00;2.50;94.60
27368;DHT22;14839;48.106;11.618;2023-03-16T08:06:27;2.60;94.60
27368;DHT22;14839;48.106;11.618;2023-03-16T08:08:52;2.60;94.60
27368;DHT22;14839;48.106;11.618;2023-03-16T08:11:18;2.40;94.60
27368;DHT22;14839;48.106;11.618;2023-03-16T08:13:49;2.60;94.60
27368;DHT22;14839;48.106;11.618;2023-03-16T08:16:20;2.80;94.60
27368;DHT22;14839;48.106;11.618;2023-03-16T08:18:45;2.80;94.60
27368;DHT22;14839;48.106;11.618;2023-03-16T08:21:11;3.00;94.60
27368;DHT22;14839;48.106;11.618;2023-03-16T08:23:37;3.10;94.60
27368;DHT22;14839;48.106;11.618;2023-03-16T08:26:03;3.30;94.60
27368;DHT22;14839;48.106;11.618;2023-03-16T08:28:33;3.10;94.60
27368;DHT22;14839;48.106;11.618;2023-03-16T08:30:59;3.20;94.60
27368;DHT22;14839;48.106;11.618;2023-03-16T08:33:25;3.40;94.60
27368;DHT22;14839;48.106;11.618;2023-03-16T08:35:52;3.60;94.60
27368;DHT22;14839;48.106;11.618;2023-03-16T08:38:18;3.60;94.60
27368;DHT22;14839;48.106;11.618;2023-03-16T08:40:45;3.50;94.60
27368;DHT22;14839;48.106;11.618;2023-03-16T08:43:14;3.30;94.60
27368;DHT22;14839;48.106;11.618;2023-03-16T08:45:40;3.40;94.60
27368;DHT22;14839;48.106;11.618;2023-03-16T08:48:07;3.50;94.60
27368;DHT22;14839;48.106;11.618;2023-03-16T08:50:32;3.50;94.60
27368;DHT22;14839;48.106;11.618;2023-03-16T08:52:58;3.50;94.60
27368;DHT22;14839;48.106;11.618;2023-03-16T08:55:25;3.60;94.60
27368;DHT22;14839;48.106;11.618;2023-03-16T08:57:51;3.60;94.60
27368;DHT22;14839;48.106;11.618;2023-03-16T09:00:16;3.50;94.60
27368;DHT22;14839;48.106;11.618;2023-03-16T09:02:43;3.40;94.60
27368;DHT22;14839;48.106;11.618;2023-03-16T09:05:10;3.10;94.60
27368;DHT22;14839;48.106;11.618;2023-03-16T09:07:37;3.30;94.60
27368;DHT22;14839;48.106;11.618;2023-03-16T09:10:05;3.30;94.60
27368;DHT22;14839;48.106;11.618;2023-03-16T09:12:34;3.80;94.60
27368;DHT22;14839;48.106;11.618;2023-03-16T09:15:00;4.50;94.60
27368;DHT22;14839;48.106;11.618;2023-03-16T09:17:26;5.30;94.60
27368;DHT22;14839;48.106;11.618;2023-03-16T09:19:53;5.70;93.40
27368;DHT22;14839;48.106;11.618;2023-03-16T09:22:20;6.50;92.70
27368;DHT22;14839;48.106;11.618;2023-03-16T09:24:47;7.40;88.40
27368;DHT22;14839;48.106;11.618;2023-03-16T09:27:13;7.30;88.70
27368;DHT22;14839;48.106;11.618;2023-03-16T09:29:40;7.50;87.20
27368;DHT22;14839;48.106;11.618;2023-03-16T09:32:06;7.40;86.90
27368;DHT22;14839;48.106;11.618;2023-03-16T09:34:32;6.90;87.20
27368;DHT22;14839;48.106;11.618;2023-03-16T09:36:58;6.70;89.30
27368;DHT22;14839;48.106;11.618;2023-03-16T09:39:24;6.50;88.10
27368;DHT22;14839;48.106;11.618;2023-03-16T09:41:58;5.60;90.60
27368;DHT22;14839;48.106;11.618;2023-03-16T09:47:14;5.80;91.80
27368;DHT22;14839;48.106;11.618;2023-03-16T09:49:46;6.60;90.90
27368;DHT22;14839;48.106;11.618;2023-03-16T09:52:39;7.50;87.80
27368;DHT22;14839;48.106;11.618;2023-03-16T09:55:31;8.00;85.40
27368;DHT22;14839;48.106;11.618;2023-03-16T09:57:59;8.90;81.20
27368;DHT22;14839;48.106;11.618;2023-03-16T10:00:30;9.20;80.60
27368;DHT22;14839;48.106;11.618;2023-03-16T10:05:56;9.30;78.40
27368;DHT22;14839;48.106;11.618;2023-03-16T10:08:26;7.90;82.00
27368;DHT22;14839;48.106;11.618;2023-03-16T10:11:15;7.40;84.10
27368;DHT22;14839;48.106;11.618;2023-03-16T10:19:07;6.70;88.90
27368;DHT22;14839;48.106;11.618;2023-03-16T10:21:38;7.10;88.00
27368;DHT22;14839;48.106;11.618;2023-03-16T10:24:18;7.70;84.40
27368;DHT22;14839;48.106;11.618;2023-03-16T10:26:53;7.20;86.20
27368;DHT22;14839;48.106;11.618;2023-03-16T10:29:20;7.40;86.60
27368;DHT22;14839;48.106;11.618;2023-03-16T10:31:46;7.80;84.40
27368;DHT22;14839;48.106;11.618;2023-03-16T10:34:13;7.60;83.50
27368;DHT22;14839;48.106;11.618;2023-03-16T10:36:42;7.90;84.10
27368;DHT22;14839;48.106;11.618;2023-03-16T10:39:11;8.20;83.30
27368;DHT22;14839;48.106;11.618;2023-03-16T10:41:39;7.70;83.20
27368;DHT22;14839;48.106;11.618;2023-03-16T10:44:26;7.40;84.70
27368;DHT22;14839;48.106;11.618;2023-03-16T10:47:01;7.00;86.30
27368;DHT22;14839;48.106;11.618;2023-03-16T10:49:37;6.50;89.20
27368;DHT22;14839;48.106;11.618;2023-03-16T10:54:58;6.10;90.10
27368;DHT22;14839;48.106;11.618;2023-03-16T10:57:40;6.00;90.50
27368;DHT22;14839;48.106;11.618;2023-03-16T11:00:20;6.30;91.30
27368;DHT22;14839;48.106;11.618;2023-03-16T11:02:51;6.90;89.20
27368;DHT22;14839;48.106;11.618;2023-03-16T11:05:24;7.20;88.60
27368;DHT22;14839;48.106;11.618;2023-03-16T11:08:00;6.80;87.80
27368;DHT22;14839;48.106;11.618;2023-03-16T11:10:45;5.90;90.80
27368;DHT22;14839;48.106;11.618;2023-03-16T11:13:16;5.50;92.60
27368;DHT22;14839;48.106;11.618;2023-03-16T11:18:49;5.90;92.60
27368;DHT22;14839;48.106;11.618;2023-03-16T11:24:03;6.30;91.70
27368;DHT22;14839;48.106;11.618;2023-03-16T11:26:35;6.50;92.10
27368;DHT22;14839;48.106;11.618;2023-03-16T11:29:27;6.60;90.60
27368;DHT22;14839;48.106;11.618;2023-03-16T11:32:00;6.70;90.40
27368;DHT22;14839;48.106;11.618;2023-03-16T11:34:29;7.00;89.90
27368;DHT22;14839;48.106;11.618;2023-03-16T11:37:17;7.00;89.90
27368;DHT22;14839;48.106;11.618;2023-03-16T11:40:09;7.00;90.10
27368;DHT22;14839;48.106;11.618;2023-03-16T11:43:23;7.00;88.60
27368;DHT22;14839;48.106;11.618;2023-03-16T11:48:44;7.00;88.90
27368;DHT22;14839;48.106;11.618;2023-03-16T11:51:31;7.10;88.70
27368;DHT22;14839;48.106;11.618;2023-03-16T11:54:05;7.40;89.20
27368;DHT22;14839;48.106;11.618;2023-03-16T11:56:42;7.70;88.00
27368;DHT22;14839;48.106;11.618;2023-03-16T11:59:28;7.70;87.20
27368;DHT22;14839;48.106;11.618;2023-03-16T12:02:32;7.90;85.00
27368;DHT22;14839;48.106;11.618;2023-03-16T12:05:40;7.60;85.10
27368;DHT22;14839;48.106;11.618;2023-03-16T12:08:28;7.60;84.50
27368;DHT22;14839;48.106;11.618;2023-03-16T12:11:13;7.70;85.90
27368;DHT22;14839;48.106;11.618;2023-03-16T12:14:13;7.70;86.50
27368;DHT22;14839;48.106;11.618;2023-03-16T12:16:58;8.10;86.20
27368;DHT22;14839;48.106;11.618;2023-03-16T12:22:20;8.20;83.00
27368;DHT22;14839;48.106;11.618;2023-03-16T12:24:48;8.10;83.90
27368;DHT22;14839;48.106;11.618;2023-03-16T12:27:28;8.00;83.00
27368;DHT22;14839;48.106;11.618;2023-03-16T12:35:55;8.20;83.60
27368;DHT22;14839;48.106;11.618;2023-03-16T12:38:47;8.60;80.60
27368;DHT22;14839;48.106;11.618;2023-03-16T12:41:39;8.60;77.90
27368;DHT22;14839;48.106;11.618;2023-03-16T12:49:33;8.90;77.60
27368;DHT22;14839;48.106;11.618;2023-03-16T12:52:07;8.70;77.30
27368;DHT22;14839;48.106;11.618;2023-03-16T12:54:33;8.50;76.40
27368;DHT22;14839;48.106;11.618;2023-03-16T12:57:04;8.50;76.30
27368;DHT22;14839;48.106;11.618;2023-03-16T12:59:42;8.60;77.50
27368;DHT22;14839;48.106;11.618;2023-03-16T13:02:35;8.50;75.70
27368;DHT22;14839;48.106;11.618;2023-03-16T13:05:16;8.60;76.00
27368;DHT22;14839;48.106;11.618;2023-03-16T13:07:51;8.60;74.50
27368;DHT22;14839;48.106;11.618;2023-03-16T13:10:18;8.60;75.40
27368;DHT22;14839;48.106;11.618;2023-03-16T13:12:46;8.80;76.10
27368;DHT22;14839;48.106;11.618;2023-03-16T13:18:02;9.00;71.60
27368;DHT22;14839;48.106;11.618;2023-03-16T13:20:30;9.00;69.70
27368;DHT22;14839;48.106;11.618;2023-03-16T13:25:44;8.90;70.90
27368;DHT22;14839;48.106;11.618;2023-03-16T13:28:14;9.00;69.50
27368;DHT22;14839;48.106;11.618;2023-03-16T13:30:48;9.20;69.50
27368;DHT22;14839;48.106;11.618;2023-03-16T13:33:23;9.20;70.40
27368;DHT22;14839;48.106;11.618;2023-03-16T13:35:52;9.20;72.10
27368;DHT22;14839;48.106;11.618;2023-03-16T13:38:20;9.20;72.50
27368;DHT22;14839;48.106;11.618;2023-03-16T13:41:09;9.20;71.80
27368;DHT22;14839;48.106;11.618;2023-03-16T13:43:41;9.20;70.70
27368;DHT22;14839;48.106;11.618;2023-03-16T13:46:19;9.40;69.80
27368;DHT22;14839;48.106;11.618;2023-03-16T13:48:47;9.40;68.90
27368;DHT22;14839;48.106;11.618;2023-03-16T13:51:16;9.30;69.70
27368;DHT22;14839;48.106;11.618;2023-03-16T13:53:42;9.40;68.60
27368;DHT22;14839;48.106;11.618;2023-03-16T13:56:13;9.40;68.50
27368;DHT22;14839;48.106;11.618;2023-03-16T13:58:43;9.50;68.60
27368;DHT22;14839;48.106;11.618;2023-03-16T14:01:25;9.50;68.90
27368;DHT22;14839;48.106;11.618;2023-03-16T14:03:51;9.20;69.10
27368;DHT22;14839;48.106;11.618;2023-03-16T14:06:26;9.20;70.60
27368;DHT22;14839;48.106;11.618;2023-03-16T14:08:57;9.30;70.00
27368;DHT22;14839;48.106;11.618;2023-03-16T14:11:25;9.40;68.80
27368;DHT22;14839;48.106;11.618;2023-03-16T14:13:52;9.40;68.50
27368;DHT22;14839;48.106;11.618;2023-03-16T14:16:22;9.50;68.00
27368;DHT22;14839;48.106;11.618;2023-03-16T14:19:06;9.60;66.50
27368;DHT22;14839;48.106;11.618;2023-03-16T14:21:32;9.70;67.30
27368;DHT22;14839;48.106;11.618;2023-03-16T14:24:00;9.70;68.20
27368;DHT22;14839;48.106;11.618;2023-03-16T14:26:37;9.70;64.90
27368;DHT22;14839;48.106;11.618;2023-03-16T14:29:24;9.60;65.90
27368;DHT22;14839;48.106;11.618;2023-03-16T14:31:51;9.70;66.70
27368;DHT22;14839;48.106;11.618;2023-03-16T14:34:34;9.70;66.20
27368;DHT22;14839;48.106;11.618;2023-03-16T14:37:11;9.60;66.10
27368;DHT22;14839;48.106;11.618;2023-03-16T14:39:37;9.60;66.20
27368;DHT22;14839;48.106;11.618;2023-03-16T14:42:13;9.60;65.60
27368;DHT22;14839;48.106;11.618;2023-03-16T14:44:39;9.60;64.30
27368;DHT22;14839;48.106;11.618;2023-03-16T14:47:06;9.70;64.90
27368;DHT22;14839;48.106;11.618;2023-03-16T14:49:37;9.80;65.50
27368;DHT22;14839;48.106;11.618;2023-03-16T14:54:47;9.70;64.00
27368;DHT22;14839;48.106;11.618;2023-03-16T14:57:16;9.70;65.50
27368;DHT22;14839;48.106;11.618;2023-03-16T14:59:41;9.70;66.20
27368;DHT22;14839;48.106;11.618;2023-03-16T15:04:45;9.60;64.90
27368;DHT22;14839;48.106;11.618;2023-03-16T15:07:33;9.50;64.40
27368;DHT22;14839;48.106;11.618;2023-03-16T15:10:08;9.50;64.40
27368;DHT22;14839;48.106;11.618;2023-03-16T15:12:41;9.60;65.20
27368;DHT22;14839;48.106;11.618;2023-03-16T15:15:16;9.70;65.80
27368;DHT22;14839;48.106;11.618;2023-03-16T15:17:47;9.50;66.10
27368;DHT22;14839;48.106;11.618;2023-03-16T15:20:17;9.60;66.10
27368;DHT22;14839;48.106;11.618;2023-03-16T15:22:44;9.70;65.50
27368;DHT22;14839;48.106;11.618;2023-03-16T15:25:17;9.60;65.50
27368;DHT22;14839;48.106;11.618;2023-03-16T15:27:44;9.60;64.70
27368;DHT22;14839;48.106;11.618;2023-03-16T15:30:16;9.40;65.50
27368;DHT22;14839;48.106;11.618;2023-03-16T15:32:42;9.40;65.20
27368;DHT22;14839;48.106;11.618;2023-03-16T15:35:07;9.40;65.60
27368;DHT22;14839;48.106;11.618;2023-03-16T15:37:33;9.50;64.90
27368;DHT22;14839;48.106;11.618;2023-03-16T15:39:59;9.50;65.50
27368;DHT22;14839;48.106;11.618;2023-03-16T15:42:25;9.50;66.10
27368;DHT22;14839;48.106;11.618;2023-03-16T15:44:51;9.60;65.60
27368;DHT22;14839;48.106;11.618;2023-03-16T15:47:17;9.60;65.60
27368;DHT22;14839;48.106;11.618;2023-03-16T15:49:43;9.60;65.80
27368;DHT22;14839;48.106;11.618;2023-03-16T15:52:41;9.40;65.30
27368;DHT22;14839;48.106;11.618;2023-03-16T15:55:13;9.40;66.20
27368;DHT22;14839;48.106;11.618;2023-03-16T15:57:40;9.40;65.80
27368;DHT22;14839;48.106;11.618;2023-03-16T16:00:10;9.30;66.40
27368;DHT22;14839;48.106;11.618;2023-03-16T16:02:37;9.30;65.90
27368;DHT22;14839;48.106;11.618;2023-03-16T16:05:02;9.30;66.70
27368;DHT22;14839;48.106;11.618;2023-03-16T16:07:28;9.30;67.70
27368;DHT22;14839;48.106;11.618;2023-03-16T16:09:54;9.30;67.60
27368;DHT22;14839;48.106;11.618;2023-03-16T16:12:20;9.20;67.70
27368;DHT22;14839;48.106;11.618;2023-03-16T16:14:51;9.10;68.30
27368;DHT22;14839;48.106;11.618;2023-03-16T16:17:17;9.10;68.00
27368;DHT22;14839;48.106;11.618;2023-03-16T16:19:50;8.90;68.90
27368;DHT22;14839;48.106;11.618;2023-03-16T16:22:17;8.90;69.50
27368;DHT22;14839;48.106;11.618;2023-03-16T16:24:43;8.70;69.80
27368;DHT22;14839;48.106;11.618;2023-03-16T16:27:10;8.80;70.60
27368;DHT22;14839;48.106;11.618;2023-03-16T16:29:37;8.80;70.60
27368;DHT22;14839;48.106;11.618;2023-03-16T16:32:03;8.80;70.60
27368;DHT22;14839;48.106;11.618;2023-03-16T16:34:29;8.60;71.00
27368;DHT22;14839;48.106;11.618;2023-03-16T16:36:56;8.60;71.30
27368;DHT22;14839;48.106;11.618;2023-03-16T16:39:22;8.60;71.90
27368;DHT22;14839;48.106;11.618;2023-03-16T16:41:50;8.50;72.50
27368;DHT22;14839;48.106;11.618;2023-03-16T16:44:28;8.50;72.50
27368;DHT22;14839;48.106;11.618;2023-03-16T16:46:55;8.50;72.40
27368;DHT22;14839;48.106;11.618;2023-03-16T16:49:22;8.50;72.40
27368;DHT22;14839;48.106;11.618;2023-03-16T16:51:49;8.40;72.70
27368;DHT22;14839;48.106;11.618;2023-03-16T16:54:18;8.40;73.00
27368;DHT22;14839;48.106;11.618;2023-03-16T16:56:45;8.30;73.40
27368;DHT22;14839;48.106;11.618;2023-03-16T16:59:17;8.20;74.20
27368;DHT22;14839;48.106;11.618;2023-03-16T17:01:44;8.20;74.80
27368;DHT22;14839;48.106;11.618;2023-03-16T17:04:16;8.10;74.60
27368;DHT22;14839;48.106;11.618;2023-03-16T17:06:43;8.10;75.10
27368;DHT22;14839;48.106;11.618;2023-03-16T17:09:09;8.00;75.10
27368;DHT22;14839;48.106;11.618;2023-03-16T17:11:40;7.90;75.50
27368;DHT22;14839;48.106;11.618;2023-03-16T17:14:07;7.90;75.80
27368;DHT22;14839;48.106;11.618;2023-03-16T17:16:35;7.80;76.60
27368;DHT22;14839;48.106;11.618;2023-03-16T17:19:01;7.70;77.00
27368;DHT22;14839;48.106;11.618;2023-03-16T17:21:29;7.70;77.60
27368;DHT22;14839;48.106;11.618;2023-03-16T17:23:55;7.60;78.10
27368;DHT22;14839;48.106;11.618;2023-03-16T17:26:25;7.60;78.50
27368;DHT22;14839;48.106;11.618;2023-03-16T17:31:30;7.40;79.10
27368;DHT22;14839;48.106;11.618;2023-03-16T17:34:00;7.40;79.40
27368;DHT22;14839;48.106;11.618;2023-03-16T17:36:27;7.30;79.70
27368;DHT22;14839;48.106;11.618;2023-03-16T17:38:53;7.30;79.90
27368;DHT22;14839;48.106;11.618;2023-03-16T17:41:26;7.20;80.60
27368;DHT22;14839;48.106;11.618;2023-03-16T17:43:55;7.10;81.50
27368;DHT22;14839;48.106;11.618;2023-03-16T17:46:23;7.00;81.70
27368;DHT22;14839;48.106;11.618;2023-03-16T17:48:51;6.90;82.10
27368;DHT22;14839;48.106;11.618;2023-03-16T17:51:19;6.90;82.40
27368;DHT22;14839;48.106;11.618;2023-03-16T17:53:44;6.80;82.30
27368;DHT22;14839;48.106;11.618;2023-03-16T17:56:17;6.80;82.60
27368;DHT22;14839;48.106;11.618;2023-03-16T17:58:48;6.80;82.60
27368;DHT22;14839;48.106;11.618;2023-03-16T18:01:16;6.70;82.90
27368;DHT22;14839;48.106;11.618;2023-03-16T18:03:42;6.70;83.00
27368;DHT22;14839;48.106;11.618;2023-03-16T18:06:18;6.60;83.50
27368;DHT22;14839;48.106;11.618;2023-03-16T18:08:45;6.60;83.50
27368;DHT22;14839;48.106;11.618;2023-03-16T18:11:33;6.50;83.60
27368;DHT22;14839;48.106;11.618;2023-03-16T18:14:01;6.50;83.60
27368;DHT22;14839;48.106;11.618;2023-03-16T18:16:28;6.40;84.20
27368;DHT22;14839;48.106;11.618;2023-03-16T18:18:59;6.40;84.40
27368;DHT22;14839;48.106;11.618;2023-03-16T18:21:28;6.30;84.40
27368;DHT22;14839;48.106;11.618;2023-03-16T18:23:54;6.30;84.80
27368;DHT22;14839;48.106;11.618;2023-03-16T18:26:20;6.30;84.50
27368;DHT22;14839;48.106;11.618;2023-03-16T18:28:48;6.20;85.00
27368;DHT22;14839;48.106;11.618;2023-03-16T18:31:26;6.20;85.00
27368;DHT22;14839;48.106;11.618;2023-03-16T18:33:57;6.10;85.30
27368;DHT22;14839;48.106;11.618;2023-03-16T18:36:30;6.10;85.30
27368;DHT22;14839;48.106;11.618;2023-03-16T18:38:59;6.00;85.70
27368;DHT22;14839;48.106;11.618;2023-03-16T18:41:27;5.90;85.90
27368;DHT22;14839;48.106;11.618;2023-03-16T18:43:55;5.90;86.20
27368;DHT22;14839;48.106;11.618;2023-03-16T18:46:27;5.90;86.20
27368;DHT22;14839;48.106;11.618;2023-03-16T18:48:59;5.90;86.00
27368;DHT22;14839;48.106;11.618;2023-03-16T18:51:29;5.90;86.20
27368;DHT22;14839;48.106;11.618;2023-03-16T18:53:55;5.90;86.00
27368;DHT22;14839;48.106;11.618;2023-03-16T18:56:26;5.90;85.70
27368;DHT22;14839;48.106;11.618;2023-03-16T18:58:54;5.80;85.90
27368;DHT22;14839;48.106;11.618;2023-03-16T19:01:29;5.80;86.00
27368;DHT22;14839;48.106;11.618;2023-03-16T19:03:57;5.80;86.20
27368;DHT22;14839;48.106;11.618;2023-03-16T19:06:29;5.80;86.20
27368;DHT22;14839;48.106;11.618;2023-03-16T19:09:13;5.80;86.20
27368;DHT22;14839;48.106;11.618;2023-03-16T19:11:42;5.70;86.30
27368;DHT22;14839;48.106;11.618;2023-03-16T19:14:15;5.70;86.50
27368;DHT22;14839;48.106;11.618;2023-03-16T19:16:41;5.70;86.90
27368;DHT22;14839;48.106;11.618;2023-03-16T19:19:08;5.60;87.10
27368;DHT22;14839;48.106;11.618;2023-03-16T19:21:34;5.50;87.40
27368;DHT22;14839;48.106;11.618;2023-03-16T19:24:01;5.50;87.50
27368;DHT22;14839;48.106;11.618;2023-03-16T19:26:33;5.50;87.70
27368;DHT22;14839;48.106;11.618;2023-03-16T19:29:01;5.40;87.80
27368;DHT22;14839;48.106;11.618;2023-03-16T19:31:29;5.40;88.00
27368;DHT22;14839;48.106;11.618;2023-03-16T19:33:55;5.30;88.30
27368;DHT22;14839;48.106;11.618;2023-03-16T19:36:24;5.30;88.60
27368;DHT22;14839;48.106;11.618;2023-03-16T19:38:50;5.30;88.70
27368;DHT22;14839;48.106;11.618;2023-03-16T19:41:22;5.20;89.00
27368;DHT22;14839;48.106;11.618;2023-03-16T19:43:50;5.20;89.00
27368;DHT22;14839;48.106;11.618;2023-03-16T19:46:16;5.10;89.30
27368;DHT22;14839;48.106;11.618;2023-03-16T19:48:42;5.10;89.80
27368;DHT22;14839;48.106;11.618;2023-03-16T19:51:15;5.10;89.90
27368;DHT22;14839;48.106;11.618;2023-03-16T19:53:46;5.00;90.10
27368;DHT22;14839;48.106;11.618;2023-03-16T19:56:17;5.00;90.20
27368;DHT22;14839;48.106;11.618;2023-03-16T19:58:48;4.90;90.30
27368;DHT22;14839;48.106;11.618;2023-03-16T20:03:42;4.80;90.80
27368;DHT22;14839;48.106;11.618;2023-03-16T20:06:19;4.80;90.90
27368;DHT22;14839;48.106;11.618;2023-03-16T20:08:46;4.80;91.00
27368;DHT22;14839;48.106;11.618;2023-03-16T20:11:26;4.70;91.10
27368;DHT22;14839;48.106;11.618;2023-03-16T20:13:53;4.70;91.10
27368;DHT22;14839;48.106;11.618;2023-03-16T20:16:26;4.70;91.20
27368;DHT22;14839;48.106;11.618;2023-03-16T20:18:54;4.70;91.20
27368;DHT22;14839;48.106;11.618;2023-03-16T20:21:21;4.70;91.50
27368;DHT22;14839;48.106;11.618;2023-03-16T20:23:47;4.60;91.70
27368;DHT22;14839;48.106;11.618;2023-03-16T20:26:21;4.50;92.10
27368;DHT22;14839;48.106;11.618;2023-03-16T20:28:48;4.40;92.30
27368;DHT22;14839;48.106;11.618;2023-03-16T20:31:25;4.40;92.50
27368;DHT22;14839;48.106;11.618;2023-03-16T20:33:53;4.30;92.70
27368;DHT22;14839;48.106;11.618;2023-03-16T20:36:20;4.40;92.70
27368;DHT22;14839;48.106;11.618;2023-03-16T20:38:46;4.40;92.70
27368;DHT22;14839;48.106;11.618;2023-03-16T20:41:36;4.50;92.40
27368;DHT22;14839;48.106;11.618;2023-03-16T20:44:01;4.50;92.40
27368;DHT22;14839;48.106;11.618;2023-03-16T20:46:29;4.60;92.30
27368;DHT22;14839;48.106;11.618;2023-03-16T20:48:56;4.60;92.30
27368;DHT22;14839;48.106;11.618;2023-03-16T20:51:22;4.60;92.40
27368;DHT22;14839;48.106;11.618;2023-03-16T20:53:49;4.60;92.30
27368;DHT22;14839;48.106;11.618;2023-03-16T20:56:23;4.60;92.50
27368;DHT22;14839;48.106;11.618;2023-03-16T20:58:50;4.60;92.60
27368;DHT22;14839;48.106;11.618;2023-03-16T21:01:19;4.50;92.70
27368;DHT22;14839;48.106;11.618;2023-03-16T21:03:51;4.50;92.90
27368;DHT22;14839;48.106;11.618;2023-03-16T21:06:29;4.40;93.10
27368;DHT22;14839;48.106;11.618;2023-03-16T21:08:59;4.40;93.30
27368;DHT22;14839;48.106;11.618;2023-03-16T21:11:35;4.30;93.60
27368;DHT22;14839;48.106;11.618;2023-03-16T21:14:03;4.20;93.90
27368;DHT22;14839;48.106;11.618;2023-03-16T21:16:29;4.20;94.00
27368;DHT22;14839;48.106;11.618;2023-03-16T21:18:55;4.20;94.10
27368;DHT22;14839;48.106;11.618;2023-03-16T21:21:21;4.20;94.20
27368;DHT22;14839;48.106;11.618;2023-03-16T21:23:47;4.10;94.30
27368;DHT22;14839;48.106;11.618;2023-03-16T21:26:23;4.00;94.60
27368;DHT22;14839;48.106;11.618;2023-03-16T21:29:00;3.90;94.60
27368;DHT22;14839;48.106;11.618;2023-03-16T21:31:27;3.90;94.60
27368;DHT22;14839;48.106;11.618;2023-03-16T21:33:53;3.90;94.60
27368;DHT22;14839;48.106;11.618;2023-03-16T21:36:21;3.90;94.60
27368;DHT22;14839;48.106;11.618;2023-03-16T21:38:48;3.90;94.60
27368;DHT22;14839;48.106;11.618;2023-03-16T21:41:15;3.90;94.60